sensor_id;sensor_type;location;lat;lon;timestamp;pressure;altitude;pressure_sealevel;temperature;humidity
24962;BME280;12992;50.884;13.668;2023-04-03T00:01:03;98147.34;;;2.20;100.00
24962;BME280;12992;50.884;13.668;2023-04-03T00:03:28;98148.34;;;2.19;100.00
24962;BME280;12992;50.884;13.668;2023-04-03T00:05:54;98141.69;;;2.15;100.00
24962;BME280;12992;50.884;13.668;2023-04-03T00:08:20;98138.50;;;2.11;100.00
24962;BME280;12992;50.884;13.668;2023-04-03T00:10:45;98144.06;;;2.10;100.00
24962;BME280;12992;50.884;13.668;2023-04-03T00:13:12;98155.66;;;2.10;99.24
24962;BME280;12992;50.884;13.668;2023-04-03T00:15:38;98156.59;;;2.17;100.00
24962;BME280;12992;50.884;13.668;2023-04-03T00:18:03;98147.78;;;2.09;98.99
24962;BME280;12992;50.884;13.668;2023-04-03T00:20:29;98133.13;;;1.96;97.60
24962;BME280;12992;50.884;13.668;2023-04-03T00:22:55;98117.09;;;1.88;97.22
24962;BME280;12992;50.884;13.668;2023-04-03T00:25:20;98143.09;;;1.88;97.76
24962;BME280;12992;50.884;13.668;2023-04-03T00:27:46;98135.16;;;1.94;95.79
24962;BME280;12992;50.884;13.668;2023-04-03T00:30:14;98126.22;;;1.79;96.37
24962;BME280;12992;50.884;13.668;2023-04-03T00:32:40;98132.75;;;1.77;95.12
24962;BME280;12992;50.884;13.668;2023-04-03T00:35:06;98128.78;;;1.73;93.95
24962;BME280;12992;50.884;13.668;2023-04-03T00:37:31;98146.97;;;1.85;93.28
24962;BME280;12992;50.884;13.668;2023-04-03T00:39:57;98136.59;;;1.82;93.40
24962;BME280;12992;50.884;13.668;2023-04-03T00:42:23;98115.81;;;1.76;91.83
24962;BME280;12992;50.884;13.668;2023-04-03T00:47:16;98106.41;;;1.57;92.28
24962;BME280;12992;50.884;13.668;2023-04-03T00:49:43;98122.53;;;1.57;93.63
24962;BME280;12992;50.884;13.668;2023-04-03T00:52:16;98126.88;;;1.58;92.92
24962;BME280;12992;50.884;13.668;2023-04-03T00:54:45;98122.69;;;1.56;92.75
24962;BME280;12992;50.884;13.668;2023-04-03T00:57:12;98120.50;;;1.59;92.47
24962;BME280;12992;50.884;13.668;2023-04-03T00:59:43;98128.56;;;1.59;93.08
24962;BME280;12992;50.884;13.668;2023-04-03T01:02:09;98141.38;;;1.72;93.58
24962;BME280;12992;50.884;13.668;2023-04-03T01:04:37;98138.44;;;1.59;92.56
24962;BME280;12992;50.884;13.668;2023-04-03T01:07:11;98117.69;;;1.53;92.77
24962;BME280;12992;50.884;13.668;2023-04-03T01:09:38;98118.78;;;1.44;93.60
24962;BME280;12992;50.884;13.668;2023-04-03T01:14:48;98121.50;;;1.35;95.46
24962;BME280;12992;50.884;13.668;2023-04-03T01:17:36;98141.06;;;1.44;94.77
24962;BME280;12992;50.884;13.668;2023-04-03T01:25:22;98132.91;;;1.37;94.16
24962;BME280;12992;50.884;13.668;2023-04-03T01:27:49;98129.66;;;1.19;94.45
24962;BME280;12992;50.884;13.668;2023-04-03T01:30:18;98148.03;;;1.30;95.26
24962;BME280;12992;50.884;13.668;2023-04-03T01:32:44;98150.72;;;1.30;94.76
24962;BME280;12992;50.884;13.668;2023-04-03T01:35:12;98131.81;;;1.24;94.76
24962;BME280;12992;50.884;13.668;2023-04-03T01:37:38;98134.56;;;1.16;95.05
24962;BME280;12992;50.884;13.668;2023-04-03T01:40:03;98120.50;;;1.05;91.94
24962;BME280;12992;50.884;13.668;2023-04-03T01:42:29;98139.22;;;1.13;90.85
24962;BME280;12992;50.884;13.668;2023-04-03T01:44:55;98128.03;;;1.10;90.95
24962;BME280;12992;50.884;13.668;2023-04-03T01:47:21;98146.94;;;1.17;91.10
24962;BME280;12992;50.884;13.668;2023-04-03T01:49:47;98141.06;;;1.13;90.89
24962;BME280;12992;50.884;13.668;2023-04-03T01:52:12;98155.84;;;1.17;92.77
24962;BME280;12992;50.884;13.668;2023-04-03T01:54:37;98148.00;;;1.07;93.63
24962;BME280;12992;50.884;13.668;2023-04-03T01:57:03;98153.84;;;1.11;95.54
24962;BME280;12992;50.884;13.668;2023-04-03T01:59:28;98142.34;;;0.94;94.69
24962;BME280;12992;50.884;13.668;2023-04-03T02:01:54;98135.19;;;0.87;95.05
24962;BME280;12992;50.884;13.668;2023-04-03T02:04:20;98148.41;;;0.88;95.98
24962;BME280;12992;50.884;13.668;2023-04-03T02:06:46;98153.94;;;0.87;95.96
24962;BME280;12992;50.884;13.668;2023-04-03T02:09:12;98154.97;;;0.85;97.86
24962;BME280;12992;50.884;13.668;2023-04-03T02:11:37;98138.59;;;0.72;98.14
24962;BME280;12992;50.884;13.668;2023-04-03T02:14:03;98148.97;;;0.75;96.28
24962;BME280;12992;50.884;13.668;2023-04-03T02:16:28;98164.22;;;0.75;98.10
24962;BME280;12992;50.884;13.668;2023-04-03T02:18:54;98157.53;;;0.71;98.57
24962;BME280;12992;50.884;13.668;2023-04-03T02:21:19;98169.94;;;0.72;99.78
24962;BME280;12992;50.884;13.668;2023-04-03T02:23:44;98153.69;;;0.65;100.00
24962;BME280;12992;50.884;13.668;2023-04-03T02:26:13;98162.41;;;0.59;100.00
24962;BME280;12992;50.884;13.668;2023-04-03T02:28:39;98174.81;;;0.60;100.00
24962;BME280;12992;50.884;13.668;2023-04-03T02:31:05;98170.63;;;0.57;100.00
24962;BME280;12992;50.884;13.668;2023-04-03T02:33:32;98181.53;;;0.64;100.00
24962;BME280;12992;50.884;13.668;2023-04-03T02:35:58;98155.75;;;0.47;100.00
24962;BME280;12992;50.884;13.668;2023-04-03T02:38:25;98162.81;;;0.40;100.00
24962;BME280;12992;50.884;13.668;2023-04-03T02:40:51;98151.78;;;0.26;100.00
24962;BME280;12992;50.884;13.668;2023-04-03T02:43:17;98151.47;;;0.21;100.00
24962;BME280;12992;50.884;13.668;2023-04-03T02:45:43;98165.03;;;0.20;100.00
24962;BME280;12992;50.884;13.668;2023-04-03T02:48:09;98144.78;;;0.09;100.00
24962;BME280;12992;50.884;13.668;2023-04-03T02:50:34;98167.06;;;0.10;100.00
24962;BME280;12992;50.884;13.668;2023-04-03T02:53:00;98172.56;;;0.08;100.00
24962;BME280;12992;50.884;13.668;2023-04-03T02:55:25;98174.75;;;0.05;100.00
24962;BME280;12992;50.884;13.668;2023-04-03T02:57:53;98181.94;;;0.04;100.00
24962;BME280;12992;50.884;13.668;2023-04-03T03:00:19;98199.69;;;0.13;100.00
24962;BME280;12992;50.884;13.668;2023-04-03T03:02:44;98168.91;;;-0.07;100.00
24962;BME280;12992;50.884;13.668;2023-04-03T03:05:10;98158.19;;;-0.23;100.00
24962;BME280;12992;50.884;13.668;2023-04-03T03:07:35;98161.88;;;-0.24;100.00
24962;BME280;12992;50.884;13.668;2023-04-03T03:10:00;98170.06;;;-0.26;100.00
24962;BME280;12992;50.884;13.668;2023-04-03T03:12:26;98181.63;;;-0.25;100.00
24962;BME280;12992;50.884;13.668;2023-04-03T03:14:51;98145.13;;;-0.51;100.00
24962;BME280;12992;50.884;13.668;2023-04-03T03:17:17;98170.38;;;-0.45;100.00
24962;BME280;12992;50.884;13.668;2023-04-03T03:19:43;98180.41;;;-0.39;100.00
24962;BME280;12992;50.884;13.668;2023-04-03T03:22:08;98143.78;;;-0.55;100.00
24962;BME280;12992;50.884;13.668;2023-04-03T03:24:34;98147.78;;;-0.59;100.00
24962;BME280;12992;50.884;13.668;2023-04-03T03:26:59;98159.16;;;-0.57;100.00
24962;BME280;12992;50.884;13.668;2023-04-03T03:29:24;98173.38;;;-0.57;100.00
24962;BME280;12992;50.884;13.668;2023-04-03T03:31:51;98174.53;;;-0.59;100.00
24962;BME280;12992;50.884;13.668;2023-04-03T03:34:17;98158.94;;;-0.72;100.00
24962;BME280;12992;50.884;13.668;2023-04-03T03:36:42;98170.66;;;-0.73;100.00
24962;BME280;12992;50.884;13.668;2023-04-03T03:39:08;98180.22;;;-0.70;100.00
24962;BME280;12992;50.884;13.668;2023-04-03T03:41:33;98193.25;;;-0.67;100.00
24962;BME280;12992;50.884;13.668;2023-04-03T03:43:59;98174.97;;;-0.80;100.00
24962;BME280;12992;50.884;13.668;2023-04-03T03:46:26;98174.31;;;-0.82;100.00
24962;BME280;12992;50.884;13.668;2023-04-03T03:48:52;98189.34;;;-0.81;100.00
24962;BME280;12992;50.884;13.668;2023-04-03T03:51:18;98169.47;;;-0.87;100.00
24962;BME280;12992;50.884;13.668;2023-04-03T03:53:43;98178.16;;;-0.84;100.00
24962;BME280;12992;50.884;13.668;2023-04-03T03:56:13;98175.13;;;-0.90;100.00
24962;BME280;12992;50.884;13.668;2023-04-03T03:58:39;98193.56;;;-0.78;100.00
24962;BME280;12992;50.884;13.668;2023-04-03T04:01:06;98185.50;;;-0.87;100.00
24962;BME280;12992;50.884;13.668;2023-04-03T04:03:38;98176.78;;;-0.97;100.00
24962;BME280;12992;50.884;13.668;2023-04-03T04:06:03;98183.63;;;-0.94;100.00
24962;BME280;12992;50.884;13.668;2023-04-03T04:08:28;98169.56;;;-1.04;100.00
24962;BME280;12992;50.884;13.668;2023-04-03T04:10:54;98195.84;;;-0.92;100.00
24962;BME280;12992;50.884;13.668;2023-04-03T04:13:20;98186.13;;;-1.01;100.00
24962;BME280;12992;50.884;13.668;2023-04-03T04:15:45;98164.34;;;-1.14;100.00
24962;BME280;12992;50.884;13.668;2023-04-03T04:18:12;98202.66;;;-0.97;100.00
24962;BME280;12992;50.884;13.668;2023-04-03T04:20:40;98208.53;;;-0.94;100.00
24962;BME280;12992;50.884;13.668;2023-04-03T04:23:06;98232.31;;;-0.82;100.00
24962;BME280;12992;50.884;13.668;2023-04-03T04:25:32;98234.34;;;-0.76;100.00
24962;BME280;12992;50.884;13.668;2023-04-03T04:27:58;98229.13;;;-0.86;100.00
24962;BME280;12992;50.884;13.668;2023-04-03T04:30:23;98243.38;;;-0.77;100.00
24962;BME280;12992;50.884;13.668;2023-04-03T04:32:50;98256.28;;;-0.65;100.00
24962;BME280;12992;50.884;13.668;2023-04-03T04:35:15;98265.69;;;-0.52;100.00
24962;BME280;12992;50.884;13.668;2023-04-03T04:37:42;98271.88;;;-0.52;100.00
24962;BME280;12992;50.884;13.668;2023-04-03T04:40:08;98250.09;;;-0.65;100.00
24962;BME280;12992;50.884;13.668;2023-04-03T04:42:34;98251.44;;;-0.61;100.00
24962;BME280;12992;50.884;13.668;2023-04-03T04:45:00;98230.31;;;-0.72;100.00
24962;BME280;12992;50.884;13.668;2023-04-03T04:47:25;98249.59;;;-0.69;100.00
24962;BME280;12992;50.884;13.668;2023-04-03T04:49:51;98258.13;;;-0.65;100.00
24962;BME280;12992;50.884;13.668;2023-04-03T04:52:17;98265.66;;;-0.61;100.00
24962;BME280;12992;50.884;13.668;2023-04-03T04:54:42;98281.06;;;-0.54;100.00
24962;BME280;12992;50.884;13.668;2023-04-03T04:57:08;98246.38;;;-0.72;100.00
24962;BME280;12992;50.884;13.668;2023-04-03T04:59:34;98262.78;;;-0.67;100.00
24962;BME280;12992;50.884;13.668;2023-04-03T05:02:00;98273.31;;;-0.66;100.00
24962;BME280;12992;50.884;13.668;2023-04-03T05:04:26;98281.84;;;-0.62;100.00
24962;BME280;12992;50.884;13.668;2023-04-03T05:06:57;98301.47;;;-0.45;100.00
24962;BME280;12992;50.884;13.668;2023-04-03T05:09:26;98281.88;;;-0.54;100.00
24962;BME280;12992;50.884;13.668;2023-04-03T05:11:52;98260.44;;;-0.70;100.00
24962;BME280;12992;50.884;13.668;2023-04-03T05:14:21;98240.97;;;-0.89;100.00
24962;BME280;12992;50.884;13.668;2023-04-03T05:16:47;98248.00;;;-0.88;100.00
24962;BME280;12992;50.884;13.668;2023-04-03T05:19:13;98275.28;;;-0.76;100.00
24962;BME280;12992;50.884;13.668;2023-04-03T05:21:39;98276.47;;;-0.78;100.00
24962;BME280;12992;50.884;13.668;2023-04-03T05:24:10;98262.88;;;-0.85;100.00
24962;BME280;12992;50.884;13.668;2023-04-03T05:26:39;98269.69;;;-0.91;100.00
24962;BME280;12992;50.884;13.668;2023-04-03T05:29:05;98280.78;;;-0.86;100.00
24962;BME280;12992;50.884;13.668;2023-04-03T05:31:31;98258.66;;;-0.96;100.00
24962;BME280;12992;50.884;13.668;2023-04-03T05:33:57;98277.44;;;-0.88;100.00
24962;BME280;12992;50.884;13.668;2023-04-03T05:36:22;98269.03;;;-0.93;100.00
24962;BME280;12992;50.884;13.668;2023-04-03T05:38:53;98279.41;;;-0.90;100.00
24962;BME280;12992;50.884;13.668;2023-04-03T05:41:19;98274.88;;;-0.89;100.00
24962;BME280;12992;50.884;13.668;2023-04-03T05:43:46;98274.72;;;-0.96;100.00
24962;BME280;12992;50.884;13.668;2023-04-03T05:46:16;98277.06;;;-0.93;100.00
24962;BME280;12992;50.884;13.668;2023-04-03T05:48:44;98279.69;;;-1.01;100.00
24962;BME280;12992;50.884;13.668;2023-04-03T05:51:16;98295.31;;;-0.88;100.00
24962;BME280;12992;50.884;13.668;2023-04-03T05:53:44;98299.00;;;-0.81;100.00
24962;BME280;12992;50.884;13.668;2023-04-03T05:56:10;98272.03;;;-0.96;100.00
24962;BME280;12992;50.884;13.668;2023-04-03T05:58:39;98291.09;;;-0.91;100.00
24962;BME280;12992;50.884;13.668;2023-04-03T06:01:04;98280.72;;;-0.94;100.00
24962;BME280;12992;50.884;13.668;2023-04-03T06:03:31;98297.78;;;-0.95;100.00
24962;BME280;12992;50.884;13.668;2023-04-03T06:05:56;98286.41;;;-0.97;100.00
24962;BME280;12992;50.884;13.668;2023-04-03T06:08:23;98267.28;;;-1.10;100.00
24962;BME280;12992;50.884;13.668;2023-04-03T06:10:49;98318.88;;;-0.83;100.00
24962;BME280;12992;50.884;13.668;2023-04-03T06:13:15;98294.09;;;-0.94;100.00
24962;BME280;12992;50.884;13.668;2023-04-03T06:15:40;98290.38;;;-1.01;100.00
24962;BME280;12992;50.884;13.668;2023-04-03T06:18:08;98321.78;;;-0.77;100.00
24962;BME280;12992;50.884;13.668;2023-04-03T06:20:33;98329.13;;;-0.71;100.00
24962;BME280;12992;50.884;13.668;2023-04-03T06:22:59;98319.09;;;-0.77;100.00
24962;BME280;12992;50.884;13.668;2023-04-03T06:25:26;98327.50;;;-0.64;100.00
24962;BME280;12992;50.884;13.668;2023-04-03T06:27:51;98314.63;;;-0.68;100.00
24962;BME280;12992;50.884;13.668;2023-04-03T06:30:17;98313.78;;;-0.69;100.00
24962;BME280;12992;50.884;13.668;2023-04-03T06:32:42;98369.25;;;-0.37;100.00
24962;BME280;12992;50.884;13.668;2023-04-03T06:35:08;98360.38;;;-0.37;100.00
24962;BME280;12992;50.884;13.668;2023-04-03T06:37:34;98367.63;;;-0.30;100.00
24962;BME280;12992;50.884;13.668;2023-04-03T06:39:59;98353.72;;;-0.33;100.00
24962;BME280;12992;50.884;13.668;2023-04-03T06:42:25;98356.06;;;-0.30;100.00
24962;BME280;12992;50.884;13.668;2023-04-03T06:44:57;98360.94;;;-0.34;100.00
24962;BME280;12992;50.884;13.668;2023-04-03T06:47:22;98362.44;;;-0.31;100.00
24962;BME280;12992;50.884;13.668;2023-04-03T06:49:48;98300.56;;;-0.70;100.00
24962;BME280;12992;50.884;13.668;2023-04-03T06:52:13;98335.72;;;-0.57;100.00
24962;BME280;12992;50.884;13.668;2023-04-03T06:54:39;98359.50;;;-0.46;100.00
24962;BME280;12992;50.884;13.668;2023-04-03T06:57:06;98385.34;;;-0.29;100.00
24962;BME280;12992;50.884;13.668;2023-04-03T06:59:31;98408.50;;;-0.11;100.00
24962;BME280;12992;50.884;13.668;2023-04-03T07:01:57;98378.53;;;-0.23;100.00
24962;BME280;12992;50.884;13.668;2023-04-03T07:04:23;98338.44;;;-0.49;100.00
24962;BME280;12992;50.884;13.668;2023-04-03T07:06:48;98390.44;;;-0.17;100.00
24962;BME280;12992;50.884;13.668;2023-04-03T07:09:14;98403.69;;;-0.08;100.00
24962;BME280;12992;50.884;13.668;2023-04-03T07:11:39;98404.22;;;0.04;100.00
24962;BME280;12992;50.884;13.668;2023-04-03T07:14:05;98382.06;;;-0.14;100.00
24962;BME280;12992;50.884;13.668;2023-04-03T07:16:31;98332.09;;;-0.48;100.00
24962;BME280;12992;50.884;13.668;2023-04-03T07:18:57;98387.22;;;-0.21;100.00
24962;BME280;12992;50.884;13.668;2023-04-03T07:21:22;98350.47;;;-0.45;100.00
24962;BME280;12992;50.884;13.668;2023-04-03T07:23:48;98409.34;;;-0.11;100.00
24962;BME280;12992;50.884;13.668;2023-04-03T07:26:13;98386.09;;;-0.10;100.00
24962;BME280;12992;50.884;13.668;2023-04-03T07:28:38;98409.22;;;-0.01;100.00
24962;BME280;12992;50.884;13.668;2023-04-03T07:31:07;98373.16;;;-0.23;100.00
24962;BME280;12992;50.884;13.668;2023-04-03T07:33:34;98397.50;;;-0.08;100.00
24962;BME280;12992;50.884;13.668;2023-04-03T07:36:00;98442.09;;;0.17;100.00
24962;BME280;12992;50.884;13.668;2023-04-03T07:38:26;98428.53;;;0.11;100.00
24962;BME280;12992;50.884;13.668;2023-04-03T07:40:51;98441.78;;;0.20;100.00
24962;BME280;12992;50.884;13.668;2023-04-03T07:43:19;98435.59;;;0.28;100.00
24962;BME280;12992;50.884;13.668;2023-04-03T07:45:46;98425.88;;;0.19;100.00
24962;BME280;12992;50.884;13.668;2023-04-03T07:48:12;98440.78;;;0.30;100.00
24962;BME280;12992;50.884;13.668;2023-04-03T07:50:40;98475.84;;;0.52;100.00
24962;BME280;12992;50.884;13.668;2023-04-03T07:53:05;98466.66;;;0.55;100.00
24962;BME280;12992;50.884;13.668;2023-04-03T07:55:32;98481.41;;;0.67;99.94
24962;BME280;12992;50.884;13.668;2023-04-03T07:57:57;98476.59;;;0.71;99.61
24962;BME280;12992;50.884;13.668;2023-04-03T08:00:22;98469.38;;;0.71;98.90
24962;BME280;12992;50.884;13.668;2023-04-03T08:02:48;98456.25;;;0.60;97.23
24962;BME280;12992;50.884;13.668;2023-04-03T08:05:18;98464.66;;;0.65;97.33
24962;BME280;12992;50.884;13.668;2023-04-03T08:07:44;98423.75;;;0.47;97.18
24962;BME280;12992;50.884;13.668;2023-04-03T08:10:09;98432.97;;;0.52;95.06
24962;BME280;12992;50.884;13.668;2023-04-03T08:12:34;98442.00;;;0.51;97.10
24962;BME280;12992;50.884;13.668;2023-04-03T08:15:02;98449.22;;;0.59;97.95
24962;BME280;12992;50.884;13.668;2023-04-03T08:17:27;98476.06;;;0.75;97.37
24962;BME280;12992;50.884;13.668;2023-04-03T08:19:53;98478.28;;;0.80;97.67
24962;BME280;12992;50.884;13.668;2023-04-03T08:22:18;98490.53;;;0.99;98.90
24962;BME280;12992;50.884;13.668;2023-04-03T08:24:43;98455.94;;;0.79;97.63
24962;BME280;12992;50.884;13.668;2023-04-03T08:27:09;98479.25;;;0.87;99.53
24962;BME280;12992;50.884;13.668;2023-04-03T08:29:34;98474.25;;;0.84;99.14
24962;BME280;12992;50.884;13.668;2023-04-03T08:31:59;98476.44;;;0.89;98.09
24962;BME280;12992;50.884;13.668;2023-04-03T08:34:25;98446.56;;;0.75;99.13
24962;BME280;12992;50.884;13.668;2023-04-03T08:36:50;98478.59;;;0.85;98.38
24962;BME280;12992;50.884;13.668;2023-04-03T08:39:15;98461.16;;;0.81;95.94
24962;BME280;12992;50.884;13.668;2023-04-03T08:41:43;98475.44;;;0.98;92.75
24962;BME280;12992;50.884;13.668;2023-04-03T08:44:20;98524.41;;;1.24;94.66
24962;BME280;12992;50.884;13.668;2023-04-03T08:46:55;98519.38;;;1.37;93.91
24962;BME280;12992;50.884;13.668;2023-04-03T08:49:35;98546.38;;;1.68;94.45
24962;BME280;12992;50.884;13.668;2023-04-03T08:52:05;98528.25;;;1.70;91.08
24962;BME280;12992;50.884;13.668;2023-04-03T08:57:23;98477.09;;;1.48;90.78
24962;BME280;12992;50.884;13.668;2023-04-03T08:59:51;98476.25;;;1.47;90.98
24962;BME280;12992;50.884;13.668;2023-04-03T09:02:30;98531.41;;;1.82;91.26
24962;BME280;12992;50.884;13.668;2023-04-03T09:04:57;98552.84;;;2.07;91.15
24962;BME280;12992;50.884;13.668;2023-04-03T09:07:35;98529.03;;;1.95;91.76
24962;BME280;12992;50.884;13.668;2023-04-03T09:10:03;98488.13;;;1.77;89.35
24962;BME280;12992;50.884;13.668;2023-04-03T09:12:34;98485.78;;;1.66;89.46
24962;BME280;12992;50.884;13.668;2023-04-03T09:15:09;98468.19;;;1.55;88.06
24962;BME280;12992;50.884;13.668;2023-04-03T09:22:45;98501.88;;;1.66;90.43
24962;BME280;12992;50.884;13.668;2023-04-03T09:25:20;98518.34;;;1.79;90.52
24962;BME280;12992;50.884;13.668;2023-04-03T09:27:47;98517.31;;;1.88;89.46
24962;BME280;12992;50.884;13.668;2023-04-03T09:30:21;98557.34;;;2.22;86.95
24962;BME280;12992;50.884;13.668;2023-04-03T09:32:50;98648.31;;;3.36;88.16
24962;BME280;12992;50.884;13.668;2023-04-03T09:35:55;98579.91;;;3.23;82.36
24962;BME280;12992;50.884;13.668;2023-04-03T09:40:40;98543.63;;;3.19;80.76
24962;BME280;12992;50.884;13.668;2023-04-03T09:45:41;98653.13;;;3.95;85.75
24962;BME280;12992;50.884;13.668;2023-04-03T09:55:58;98608.41;;;4.82;78.29
24962;BME280;12992;50.884;13.668;2023-04-03T09:58:29;98515.50;;;4.26;75.90
24962;BME280;12992;50.884;13.668;2023-04-03T10:01:00;98562.91;;;4.50;79.35
24962;BME280;12992;50.884;13.668;2023-04-03T10:03:34;98575.13;;;4.61;80.71
24962;BME280;12992;50.884;13.668;2023-04-03T10:06:04;98561.03;;;4.65;78.73
24962;BME280;12992;50.884;13.668;2023-04-03T10:09:02;98537.28;;;4.24;78.17
24962;BME280;12992;50.884;13.668;2023-04-03T10:11:29;98753.81;;;7.50;76.73
24962;BME280;12992;50.884;13.668;2023-04-03T10:13:59;98713.00;;;8.72;68.19
24962;BME280;12992;50.884;13.668;2023-04-03T10:16:36;98696.34;;;9.40;62.58
24962;BME280;12992;50.884;13.668;2023-04-03T10:21:48;98442.63;;;6.86;64.26
24962;BME280;12992;50.884;13.668;2023-04-03T10:24:28;98424.81;;;6.03;67.18
24962;BME280;12992;50.884;13.668;2023-04-03T10:36:17;98528.63;;;7.65;65.46
24962;BME280;12992;50.884;13.668;2023-04-03T10:38:54;98443.66;;;6.85;66.25
24962;BME280;12992;50.884;13.668;2023-04-03T10:41:51;98386.56;;;5.78;69.65
24962;BME280;12992;50.884;13.668;2023-04-03T10:47:24;98646.34;;;8.23;72.61
24962;BME280;12992;50.884;13.668;2023-04-03T10:49:58;98684.34;;;10.37;64.64
24962;BME280;12992;50.884;13.668;2023-04-03T10:52:53;98511.38;;;9.15;59.12
24962;BME280;12992;50.884;13.668;2023-04-03T10:55:38;98471.09;;;8.67;61.19
24962;BME280;12992;50.884;13.668;2023-04-03T10:58:18;98309.09;;;5.91;63.97
24962;BME280;12992;50.884;13.668;2023-04-03T11:00:48;98321.94;;;5.42;66.36
24962;BME280;12992;50.884;13.668;2023-04-03T11:03:30;98285.34;;;4.55;68.08
24962;BME280;12992;50.884;13.668;2023-04-03T11:06:00;98242.97;;;3.70;70.30
24962;BME280;12992;50.884;13.668;2023-04-03T11:08:33;98273.19;;;3.65;71.70
24962;BME280;12992;50.884;13.668;2023-04-03T11:11:04;98347.63;;;4.03;75.42
24962;BME280;12992;50.884;13.668;2023-04-03T11:13:41;98382.78;;;4.31;77.36
24962;BME280;12992;50.884;13.668;2023-04-03T11:16:14;98358.72;;;4.29;74.16
24962;BME280;12992;50.884;13.668;2023-04-03T11:18:46;98392.59;;;4.53;73.35
24962;BME280;12992;50.884;13.668;2023-04-03T11:21:21;98377.59;;;4.50;71.19
24962;BME280;12992;50.884;13.668;2023-04-03T11:23:51;98445.97;;;5.15;72.56
24962;BME280;12992;50.884;13.668;2023-04-03T11:26:22;98488.22;;;6.00;71.58
24962;BME280;12992;50.884;13.668;2023-04-03T11:29:00;98475.63;;;6.14;69.73
24962;BME280;12992;50.884;13.668;2023-04-03T11:36:58;98345.72;;;6.55;63.76
24962;BME280;12992;50.884;13.668;2023-04-03T11:39:25;98354.03;;;6.47;64.54
24962;BME280;12992;50.884;13.668;2023-04-03T11:41:53;98264.25;;;5.21;66.88
24962;BME280;12992;50.884;13.668;2023-04-03T11:44:35;98249.97;;;4.71;66.54
24962;BME280;12992;50.884;13.668;2023-04-03T11:47:02;98237.50;;;4.42;66.32
24962;BME280;12992;50.884;13.668;2023-04-03T11:49:50;98329.28;;;4.98;69.10
24962;BME280;12992;50.884;13.668;2023-04-03T12:13:38;98326.19;;;5.01;67.60
24962;BME280;12992;50.884;13.668;2023-04-03T12:16:05;98225.03;;;4.41;65.20
24962;BME280;12992;50.884;13.668;2023-04-03T12:21:16;98217.72;;;3.92;64.62
24962;BME280;12992;50.884;13.668;2023-04-03T12:23:57;98246.97;;;3.95;67.22
24962;BME280;12992;50.884;13.668;2023-04-03T12:29:33;98211.25;;;4.08;63.98
24962;BME280;12992;50.884;13.668;2023-04-03T12:32:26;98207.38;;;3.75;63.82
24962;BME280;12992;50.884;13.668;2023-04-03T12:40:27;98273.75;;;3.97;65.36
24962;BME280;12992;50.884;13.668;2023-04-03T12:46:26;98327.84;;;4.53;67.73
24962;BME280;12992;50.884;13.668;2023-04-03T12:48:58;98357.25;;;4.91;67.21
24962;BME280;12992;50.884;13.668;2023-04-03T12:51:40;98300.47;;;4.56;65.80
24962;BME280;12992;50.884;13.668;2023-04-03T12:54:16;98301.50;;;4.55;67.49
24962;BME280;12992;50.884;13.668;2023-04-03T12:56:43;98241.94;;;4.07;67.11
24962;BME280;12992;50.884;13.668;2023-04-03T12:59:20;98227.41;;;3.87;64.80
24962;BME280;12992;50.884;13.668;2023-04-03T13:01:53;98237.81;;;3.90;66.82
24962;BME280;12992;50.884;13.668;2023-04-03T13:04:19;98237.53;;;3.85;68.49
24962;BME280;12992;50.884;13.668;2023-04-03T13:06:45;98265.00;;;3.95;68.83
24962;BME280;12992;50.884;13.668;2023-04-03T13:09:24;98284.97;;;4.15;67.05
24962;BME280;12992;50.884;13.668;2023-04-03T13:11:57;98248.16;;;4.08;65.51
24962;BME280;12992;50.884;13.668;2023-04-03T13:14:25;98237.72;;;3.98;65.03
24962;BME280;12992;50.884;13.668;2023-04-03T13:17:10;98239.19;;;4.01;64.90
24962;BME280;12992;50.884;13.668;2023-04-03T13:19:38;98243.94;;;3.98;65.19
24962;BME280;12992;50.884;13.668;2023-04-03T13:22:56;98205.38;;;3.62;65.22
24962;BME280;12992;50.884;13.668;2023-04-03T13:24:58;98223.94;;;3.72;65.64
24962;BME280;12992;50.884;13.668;2023-04-03T13:27:24;98208.72;;;3.64;64.17
24962;BME280;12992;50.884;13.668;2023-04-03T13:29:57;98259.53;;;3.88;64.65
24962;BME280;12992;50.884;13.668;2023-04-03T13:32:24;98277.16;;;4.06;65.23
24962;BME280;12992;50.884;13.668;2023-04-03T13:34:51;98299.41;;;4.29;65.93
24962;BME280;12992;50.884;13.668;2023-04-03T13:37:32;98260.84;;;4.14;65.07
24962;BME280;12992;50.884;13.668;2023-04-03T13:42:35;98259.31;;;4.05;68.09
24962;BME280;12992;50.884;13.668;2023-04-03T13:45:22;98366.81;;;4.93;67.60
24962;BME280;12992;50.884;13.668;2023-04-03T13:47:50;98304.84;;;4.78;65.97
24962;BME280;12992;50.884;13.668;2023-04-03T13:50:20;98305.72;;;4.86;66.28
24962;BME280;12992;50.884;13.668;2023-04-03T13:52:55;98312.41;;;4.90;65.83
24962;BME280;12992;50.884;13.668;2023-04-03T13:55:31;98327.69;;;5.04;67.27
24962;BME280;12992;50.884;13.668;2023-04-03T14:00:29;98255.22;;;4.51;67.48
24962;BME280;12992;50.884;13.668;2023-04-03T14:02:56;98244.88;;;4.55;65.86
24962;BME280;12992;50.884;13.668;2023-04-03T14:05:22;98212.16;;;4.15;65.38
24962;BME280;12992;50.884;13.668;2023-04-03T14:07:49;98239.75;;;4.39;64.93
24962;BME280;12992;50.884;13.668;2023-04-03T14:10:14;98285.25;;;4.70;65.33
24962;BME280;12992;50.884;13.668;2023-04-03T14:12:40;98280.16;;;4.81;65.20
24962;BME280;12992;50.884;13.668;2023-04-03T14:17:42;98233.13;;;4.41;64.66
24962;BME280;12992;50.884;13.668;2023-04-03T14:20:14;98189.47;;;3.88;66.52
24962;BME280;12992;50.884;13.668;2023-04-03T14:22:40;98161.81;;;3.58;66.91
24962;BME280;12992;50.884;13.668;2023-04-03T14:25:06;98186.91;;;3.59;67.67
24962;BME280;12992;50.884;13.668;2023-04-03T14:27:40;98185.16;;;3.51;69.63
24962;BME280;12992;50.884;13.668;2023-04-03T14:30:09;98177.69;;;3.32;70.05
24962;BME280;12992;50.884;13.668;2023-04-03T14:32:34;98175.94;;;3.24;69.28
24962;BME280;12992;50.884;13.668;2023-04-03T14:35:00;98180.47;;;3.24;70.61